Time;durP1;ratioP1;P1;durP2;ratioP2;P2;SDS_P1;SDS_P2;PMS_P1;PMS_P2;Temp;Humidity;BMP_temperature;BMP_pressure;BME280_temperature;BME280_humidity;BME280_pressure;Samples;Min_cycle;Max_cycle;Signal;HPM_P1;HPM_P2
2022/07/09 00:00:06;;;;;;;;;;;;;;;;;;5082685;28;1393;-66
2022/07/09 00:02:31;;;;;;;;;;;;;;;;;;5072512;28;1568;-66
2022/07/09 00:04:56;;;;;;;;;;;;;;;;;;5082986;28;1628;-66
2022/07/09 00:07:22;;;;;;;;;;;;;;;;;;5078911;28;1585;-65
2022/07/09 00:09:47;;;;;;;;;;;;;;;;;;5081761;28;1889;-66
2022/07/09 00:12:12;;;;;;;;;;;;;;;;;;5075482;28;1230;-66
2022/07/09 00:14:37;;;;;;;;;;;;;;;;;;5083114;28;938;-66
2022/07/09 00:17:03;;;;;;;;;;;;;;;;;;5073733;28;1631;-66
2022/07/09 00:19:28;;;;;;;;;;;;;;;;;;5082972;28;1244;-66
2022/07/09 00:21:53;;;;;;;;;;;;;;;;;;5083116;28;1008;-66
2022/07/09 00:24:18;;;;;;;;;;;;;;;;;;5066026;28;1466;-66
2022/07/09 00:26:44;;;;;;;;;;;;;;;;;;5077799;28;1463;-65
2022/07/09 00:29:09;;;;;;;;;;;;;;;;;;5079532;28;1426;-65
2022/07/09 00:31:34;;;;;;;;;;;;;;;;;;5075102;28;1887;-66
2022/07/09 00:33:59;;;;;;;;;;;;;;;;;;5082088;28;1382;-65
2022/07/09 00:36:24;;;;;;;;;;;;;;;;;;5070533;28;1553;-66
2022/07/09 00:38:49;;;;;;;;;;;;;;;;;;5078792;28;1323;-65
2022/07/09 00:41:15;;;;;;;;;;;;;;;;;;5073695;28;1599;-66
2022/07/09 00:43:45;;;;;;;;;;;;;;;;;;5082113;28;1478;-65
2022/07/09 00:46:14;;;;;;;;;;;;;;;;;;5073528;28;1600;-65
2022/07/09 00:48:40;;;;;;;;;;;;;;;;;;5070874;28;1310;-66
2022/07/09 00:51:05;;;;;;;;;;;;;;;;;;5081501;28;1967;-66
2022/07/09 00:53:30;;;;;;;;;;;;;;;;;;5080731;28;1449;-65
2022/07/09 00:55:55;;;;;;;;;;;;;;;;;;5075562;28;1429;-65
2022/07/09 00:58:21;;;;;;;;;;;;;;;;;;5074906;28;1467;-65
2022/07/09 01:00:47;;;;;;;;;;;;;;;;;;5073930;28;1613;-65
2022/07/09 01:03:12;;;;;;;;;;;;;;;;;;5079517;28;1235;-65
2022/07/09 01:05:37;;;;;;;;;;;;;;;;;;5079793;28;1548;-67
2022/07/09 01:08:04;;;;;;;;;;;;;;;;;;5074808;28;1262;-67
2022/07/09 01:10:29;;;;;;;;;;;;;;;;;;5075629;28;1957;-66
2022/07/09 01:12:55;;;;;;;;;;;;;;;;;;5070410;28;1484;-67
2022/07/09 01:15:20;;;;;;;;;;;;;;;;;;5078668;28;1489;-66
2022/07/09 01:17:45;;;;;;;;;;;;;;;;;;5079716;28;1385;-66
2022/07/09 01:20:11;;;;;;;;;;;;;;;;;;5067576;28;1327;-65
2022/07/09 01:22:36;;;;;;;;;;;;;;;;;;5074851;28;1620;-65
2022/07/09 01:25:04;;;;;;;;;;;;;;;;;;5081475;28;1172;-65
2022/07/09 01:27:30;;;;;;;;;;;;;;;;;;5076843;28;1798;-65
2022/07/09 01:29:55;;;;;;;;;;;;;;;;;;5080877;28;1968;-65
2022/07/09 01:32:20;;;;;;;;;;;;;;;;;;5076801;28;1513;-66
2022/07/09 01:34:45;;;;;;;;;;;;;;;;;;5077418;28;1485;-65
2022/07/09 01:37:10;;;;;;;;;;;;;;;;;;5076824;28;1513;-65
2022/07/09 01:39:49;;;;;;;;;;;;;;;;;;5076616;28;1111;-65
2022/07/09 01:42:15;;;;;;;;;;;;;;;;;;5069359;28;1601;-65
2022/07/09 01:44:40;;;;;;;;;;;;;;;;;;5081165;28;1206;-65
2022/07/09 01:47:05;;;;;;;;;;;;;;;;;;5064854;28;1592;-65
2022/07/09 01:49:30;;;;;;;;;;;;;;;;;;5074983;28;1901;-65
2022/07/09 01:51:55;;;;;;;;;;;;;;;;;;5076096;28;1337;-65
2022/07/09 01:54:20;;;;;;;;;;;;;;;;;;5081791;28;1202;-65
2022/07/09 01:56:46;;;;;;;;;;;;;;;;;;5071958;28;1399;-65
2022/07/09 01:59:11;;;;;;;;;;;;;;;;;;5081558;28;1190;-65
2022/07/09 02:01:36;;;;;;;;;;;;;;;;;;5071902;28;1639;-65
2022/07/09 02:04:01;;;;;;;;;;;;;;;;;;5073061;28;1556;-65
2022/07/09 02:06:26;;;;;;;;;;;;;;;;;;5069979;28;1470;-64
2022/07/09 02:08:52;;;;;;;;;;;;;;;;;;5081388;28;1115;-65
2022/07/09 02:11:17;;;;;;;;;;;;;;;;;;5073976;28;1890;-66
2022/07/09 02:13:42;;;;;;;;;;;;;;;;;;5076922;28;1668;-66
2022/07/09 02:16:08;;;;;;;;;;;;;;;;;;5076020;28;1290;-66
2022/07/09 02:18:33;;;;;;;;;;;;;;;;;;5077482;28;1521;-66
2022/07/09 02:20:58;;;;;;;;;;;;;;;;;;5074185;28;1459;-67
2022/07/09 02:23:23;;;;;;;;;;;;;;;;;;5073905;28;1569;-66
2022/07/09 02:25:49;;;;;;;;;;;;;;;;;;5073947;28;1342;-66
2022/07/09 02:28:14;;;;;;;;;;;;;;;;;;5073834;28;1342;-67
2022/07/09 02:30:39;;;;;;;;;;;;;;;;;;5076021;28;1956;-66
2022/07/09 02:33:05;;;;;;;;;;;;;;;;;;5071545;28;1290;-67
2022/07/09 02:35:30;;;;;;;;;;;;;;;;;;5080399;28;1445;-67
2022/07/09 02:37:55;;;;;;;;;;;;;;;;;;5076012;28;1588;-66
2022/07/09 02:40:20;;;;;;;;;;;;;;;;;;5080928;28;1158;-67
2022/07/09 02:42:45;;;;;;;;;;;;;;;;;;5076752;28;1612;-64
2022/07/09 02:45:10;;;;;;;;;;;;;;;;;;5079530;28;1396;-66
2022/07/09 02:47:36;;;;;;;;;;;;;;;;;;5062775;28;1342;-66
2022/07/09 02:50:01;;;;;;;;;;;;;;;;;;5078705;28;1898;-66
2022/07/09 02:52:26;;;;;;;;;;;;;;;;;;5080710;28;823;-66
2022/07/09 02:54:51;;;;;;;;;;;;;;;;;;5080565;28;1450;-66
2022/07/09 02:57:17;;;;;;;;;;;;;;;;;;5070918;28;1584;-66
2022/07/09 02:59:42;;;;;;;;;;;;;;;;;;5080717;28;1052;-67
2022/07/09 03:02:07;;;;;;;;;;;;;;;;;;5076553;28;1654;-67
2022/07/09 03:04:32;;;;;;;;;;;;;;;;;;5080756;28;1178;-67
2022/07/09 03:06:57;;;;;;;;;;;;;;;;;;5074980;28;1520;-68
2022/07/09 03:09:22;;;;;;;;;;;;;;;;;;5080585;28;1127;-67
2022/07/09 03:11:48;;;;;;;;;;;;;;;;;;5065392;28;1485;-66
2022/07/09 03:14:13;;;;;;;;;;;;;;;;;;5079311;28;1144;-66
2022/07/09 03:16:38;;;;;;;;;;;;;;;;;;5073124;28;1513;-67
2022/07/09 03:19:03;;;;;;;;;;;;;;;;;;5074030;28;1589;-65
2022/07/09 03:21:29;;;;;;;;;;;;;;;;;;5076465;28;1315;-65
2022/07/09 03:23:54;;;;;;;;;;;;;;;;;;5081425;28;1143;-65
2022/07/09 03:26:19;;;;;;;;;;;;;;;;;;5081532;28;1603;-65
2022/07/09 03:28:44;;;;;;;;;;;;;;;;;;5072915;28;1363;-66
2022/07/09 03:31:09;;;;;;;;;;;;;;;;;;5077653;28;1890;-65
2022/07/09 03:33:35;;;;;;;;;;;;;;;;;;5065393;28;1561;-66
2022/07/09 03:36:00;;;;;;;;;;;;;;;;;;5074158;28;1399;-65
2022/07/09 03:38:25;;;;;;;;;;;;;;;;;;5074209;28;1489;-65
2022/07/09 03:40:51;;;;;;;;;;;;;;;;;;5073543;28;1229;-65
2022/07/09 03:43:16;;;;;;;;;;;;;;;;;;5074504;28;1533;-65
2022/07/09 03:45:42;;;;;;;;;;;;;;;;;;5071947;28;1343;-66
2022/07/09 03:48:08;;;;;;;;;;;;;;;;;;5068432;28;1489;-66
2022/07/09 03:50:33;;;;;;;;;;;;;;;;;;5073865;28;1913;-65
2022/07/09 03:52:58;;;;;;;;;;;;;;;;;;5073036;28;1576;-65
2022/07/09 03:55:23;;;;;;;;;;;;;;;;;;5073775;28;1217;-65
2022/07/09 03:57:48;;;;;;;;;;;;;;;;;;5073366;28;1525;-65
2022/07/09 04:00:14;;;;;;;;;;;;;;;;;;5081069;28;1446;-65
2022/07/09 04:02:39;;;;;;;;;;;;;;;;;;5079939;28;1440;-65
2022/07/09 04:05:05;;;;;;;;;;;;;;;;;;5082773;28;1208;-65
2022/07/09 04:07:30;;;;;;;;;;;;;;;;;;5063915;28;1441;-65
2022/07/09 04:09:55;;;;;;;;;;;;;;;;;;5063124;28;1893;-64
2022/07/09 04:12:21;;;;;;;;;;;;;;;;;;5072114;28;1462;-65
2022/07/09 04:14:46;;;;;;;;;;;;;;;;;;5083268;28;1146;-65
2022/07/09 04:17:11;;;;;;;;;;;;;;;;;;5076110;28;1587;-64
2022/07/09 04:19:36;;;;;;;;;;;;;;;;;;5083180;28;1142;-64
2022/07/09 04:22:02;;;;;;;;;;;;;;;;;;5080138;28;1552;-64
2022/07/09 04:24:27;;;;;;;;;;;;;;;;;;5083239;28;1139;-65
2022/07/09 04:26:52;;;;;;;;;;;;;;;;;;5071342;28;1619;-65
2022/07/09 04:29:18;;;;;;;;;;;;;;;;;;5075376;28;1194;-65
2022/07/09 04:31:43;;;;;;;;;;;;;;;;;;5076315;28;1893;-65
2022/07/09 04:34:08;;;;;;;;;;;;;;;;;;5082822;28;1151;-65
2022/07/09 04:36:33;;;;;;;;;;;;;;;;;;5078715;28;1639;-64
2022/07/09 04:38:58;;;;;;;;;;;;;;;;;;5081334;28;1411;-65
2022/07/09 04:41:23;;;;;;;;;;;;;;;;;;5076973;28;1605;-65
2022/07/09 04:43:49;;;;;;;;;;;;;;;;;;5080126;28;1597;-65
2022/07/09 04:46:16;;;;;;;;;;;;;;;;;;5071703;28;1632;-65
2022/07/09 04:48:41;;;;;;;;;;;;;;;;;;5069684;28;1378;-65
2022/07/09 04:51:06;;;;;;;;;;;;;;;;;;5070967;28;1969;-65
2022/07/09 04:53:31;;;;;;;;;;;;;;;;;;5063009;28;782;-65
2022/07/09 04:55:56;;;;;;;;;;;;;;;;;;5064484;28;1547;-65
2022/07/09 04:58:22;;;;;;;;;;;;;;;;;;5076820;28;1517;-65
2022/07/09 05:00:47;;;;;;;;;;;;;;;;;;5081011;28;1245;-65
2022/07/09 05:03:12;;;;;;;;;;;;;;;;;;5080964;28;1245;-65
2022/07/09 05:05:37;;;;;;;;;;;;;;;;;;5082536;28;811;-65
2022/07/09 05:08:03;;;;;;;;;;;;;;;;;;5074233;28;1670;-65
2022/07/09 05:10:28;;;;;;;;;;;;;;;;;;5081440;28;1964;-65
2022/07/09 05:12:53;;;;;;;;;;;;;;;;;;5063732;28;1463;-65
2022/07/09 05:15:18;;;;;;;;;;;;;;;;;;5078817;28;1314;-65
2022/07/09 05:17:44;;;;;;;;;;;;;;;;;;5073905;28;1621;-65
2022/07/09 05:20:09;;;;;;;;;;;;;;;;;;5081891;28;1381;-64
2022/07/09 05:22:35;;;;;;;;;;;;;;;;;;5061863;28;1421;-64
2022/07/09 05:25:00;;;;;;;;;;;;;;;;;;5062192;28;973;-64
2022/07/09 05:27:26;;;;;;;;;;;;;;;;;;5069251;28;1593;-65
2022/07/09 05:29:51;;;;;;;;;;;;;;;;;;5077666;28;1961;-63
2022/07/09 05:32:16;;;;;;;;;;;;;;;;;;5073534;28;1628;-63
2022/07/09 05:34:42;;;;;;;;;;;;;;;;;;5081765;28;1119;-62
2022/07/09 05:37:07;;;;;;;;;;;;;;;;;;5076267;28;1663;-63
2022/07/09 05:39:33;;;;;;;;;;;;;;;;;;5074933;28;1570;-63
2022/07/09 05:41:58;;;;;;;;;;;;;;;;;;5066532;28;1521;-62
2022/07/09 05:44:23;;;;;;;;;;;;;;;;;;5070257;28;2251;-62
2022/07/09 05:46:48;;;;;;;;;;;;;;;;;;5069341;28;1545;-66
2022/07/09 05:49:13;;;;;;;;;;;;;;;;;;5075169;28;1499;-67
2022/07/09 05:51:39;;;;;;;;;;;;;;;;;;5084970;28;1937;-68
2022/07/09 05:54:04;;;;;;;;;;;;;;;;;;5085926;28;1375;-67
2022/07/09 05:56:29;;;;;;;;;;;;;;;;;;5092412;28;1342;-67
2022/07/09 05:58:54;;;;;;;;;;;;;;;;;;5089401;28;1320;-67
2022/07/09 06:01:20;;;;;;;;;;;;;;;;;;5089418;28;1296;-67
2022/07/09 06:03:46;;;;;;;;;;;;;;;;;;5088354;28;1502;-68
2022/07/09 06:06:12;;;;;;;;;;;;;;;;;;5087612;28;1294;-68
2022/07/09 06:08:37;;;;;;;;;;;;;;;;;;5086018;28;1491;-68
2022/07/09 06:11:02;;;;;;;;;;;;;;;;;;5078387;28;2398;-69
2022/07/09 06:13:28;;;;;;;;;;;;;;;;;;5075629;28;1403;-69
2022/07/09 06:15:53;;;;;;;;;;;;;;;;;;5086181;28;1428;-68
2022/07/09 06:18:18;;;;;;;;;;;;;;;;;;5067373;28;1579;-68
2022/07/09 06:20:44;;;;;;;;;;;;;;;;;;5079495;28;1413;-68
2022/07/09 06:23:10;;;;;;;;;;;;;;;;;;5087748;28;1466;-70
2022/07/09 06:25:35;;;;;;;;;;;;;;;;;;5070702;28;1766;-69
2022/07/09 06:28:01;;;;;;;;;;;;;;;;;;5075963;28;1489;-67
2022/07/09 06:30:26;;;;;;;;;;;;;;;;;;5064526;28;1901;-66
2022/07/09 06:32:51;;;;;;;;;;;;;;;;;;5073235;28;1487;-68
2022/07/09 06:35:17;;;;;;;;;;;;;;;;;;5070024;28;1649;-67
2022/07/09 06:37:42;;;;;;;;;;;;;;;;;;5086232;28;1440;-67
2022/07/09 06:40:07;;;;;;;;;;;;;;;;;;5065484;28;1570;-66
2022/07/09 06:42:33;;;;;;;;;;;;;;;;;;5084007;28;1427;-67
2022/07/09 06:44:58;;;;;;;;;;;;;;;;;;5079925;28;1442;-67
2022/07/09 06:47:23;;;;;;;;;;;;;;;;;;5073038;28;1493;-67
2022/07/09 06:49:48;;;;;;;;;;;;;;;;;;5078339;28;1905;-68
2022/07/09 06:52:13;;;;;;;;;;;;;;;;;;5074271;28;1702;-67
2022/07/09 06:54:39;;;;;;;;;;;;;;;;;;5081220;28;1368;-68
2022/07/09 06:57:04;;;;;;;;;;;;;;;;;;5085232;28;1774;-67
2022/07/09 06:59:29;;;;;;;;;;;;;;;;;;5084907;28;1424;-67
2022/07/09 07:01:55;;;;;;;;;;;;;;;;;;5078862;28;1428;-67
2022/07/09 07:04:20;;;;;;;;;;;;;;;;;;5080117;28;1478;-69
2022/07/09 07:06:48;;;;;;;;;;;;;;;;;;5072694;28;1597;-70
2022/07/09 07:09:13;;;;;;;;;;;;;;;;;;5083469;28;1576;-68
2022/07/09 07:11:38;;;;;;;;;;;;;;;;;;5079458;28;1894;-69
2022/07/09 07:14:04;;;;;;;;;;;;;;;;;;5083763;28;1392;-67
2022/07/09 07:16:29;;;;;;;;;;;;;;;;;;5079822;28;1528;-71
2022/07/09 07:18:54;;;;;;;;;;;;;;;;;;5073894;28;1485;-69
2022/07/09 07:21:20;;;;;;;;;;;;;;;;;;5077012;28;1447;-69
2022/07/09 07:23:45;;;;;;;;;;;;;;;;;;5068765;28;1430;-69
2022/07/09 07:26:10;;;;;;;;;;;;;;;;;;5080420;28;1483;-69
2022/07/09 07:28:35;;;;;;;;;;;;;;;;;;5085510;28;1667;-66
2022/07/09 07:31:00;;;;;;;;;;;;;;;;;;5072784;28;1971;-69
2022/07/09 07:33:26;;;;;;;;;;;;;;;;;;5076015;28;1533;-67
2022/07/09 07:35:51;;;;;;;;;;;;;;;;;;5089518;28;1131;-67
2022/07/09 07:38:16;;;;;;;;;;;;;;;;;;5080474;28;1454;-69
2022/07/09 07:40:42;;;;;;;;;;;;;;;;;;5074182;28;1497;-68
2022/07/09 07:43:10;;;;;;;;;;;;;;;;;;5085221;28;1494;-67
2022/07/09 07:45:35;;;;;;;;;;;;;;;;;;5082880;28;1432;-69
2022/07/09 07:48:00;;;;;;;;;;;;;;;;;;5079821;28;1647;-69
2022/07/09 07:50:26;;;;;;;;;;;;;;;;;;5067954;28;1945;-68
2022/07/09 07:52:51;;;;;;;;;;;;;;;;;;5078802;28;1451;-69
2022/07/09 07:55:16;;;;;;;;;;;;;;;;;;5084775;28;1670;-68
2022/07/09 07:57:41;;;;;;;;;;;;;;;;;;5077065;28;1458;-70
2022/07/09 08:00:07;;;;;;;;;;;;;;;;;;5077991;28;1445;-68
2022/07/09 08:02:32;;;;;;;;;;;;;;;;;;5077494;28;1624;-68
2022/07/09 08:04:57;;;;;;;;;;;;;;;;;;5075662;28;1704;-66
2022/07/09 08:07:23;;;;;;;;;;;;;;;;;;5082705;28;1655;-67
2022/07/09 08:09:48;;;;;;;;;;;;;;;;;;5075694;28;1968;-66
2022/07/09 08:12:13;;;;;;;;;;;;;;;;;;5082009;28;1510;-65
2022/07/09 08:14:39;;;;;;;;;;;;;;;;;;5086892;28;1462;-67
2022/07/09 08:17:04;;;;;;;;;;;;;;;;;;5078148;28;1491;-66
2022/07/09 08:19:29;;;;;;;;;;;;;;;;;;5071749;28;1420;-66
2022/07/09 08:21:56;;;;;;;;;;;;;;;;;;5075060;28;2389;-66
2022/07/09 08:24:21;;;;;;;;;;;;;;;;;;5082701;28;1426;-65
2022/07/09 08:26:46;;;;;;;;;;;;;;;;;;5071834;28;1553;-65
2022/07/09 08:29:11;;;;;;;;;;;;;;;;;;5069085;28;1415;-65
2022/07/09 08:31:36;;;;;;;;;;;;;;;;;;5073144;28;1882;-65
2022/07/09 08:34:02;;;;;;;;;;;;;;;;;;5082368;28;1654;-66
2022/07/09 08:36:27;;;;;;;;;;;;;;;;;;5085047;28;1434;-65
2022/07/09 08:38:52;;;;;;;;;;;;;;;;;;5089214;28;1264;-65
2022/07/09 08:41:19;;;;;;;;;;;;;;;;;;5088801;28;1537;-66
2022/07/09 08:43:48;;;;;;;;;;;;;;;;;;5080047;28;1407;-66
2022/07/09 08:46:13;;;;;;;;;;;;;;;;;;5076804;28;1556;-66
2022/07/09 08:48:38;;;;;;;;;;;;;;;;;;5076378;28;1443;-66
2022/07/09 08:51:04;;;;;;;;;;;;;;;;;;5083434;28;1878;-65
2022/07/09 08:53:29;;;;;;;;;;;;;;;;;;5072951;28;1885;-65
2022/07/09 08:55:55;;;;;;;;;;;;;;;;;;5073293;28;1454;-66
2022/07/09 08:58:20;;;;;;;;;;;;;;;;;;5079475;28;1420;-66
2022/07/09 09:00:47;;;;;;;;;;;;;;;;;;5081161;28;1533;-66
2022/07/09 09:03:12;;;;;;;;;;;;;;;;;;5084529;28;1525;-66
2022/07/09 09:05:38;;;;;;;;;;;;;;;;;;5074352;28;1415;-66
2022/07/09 09:08:16;;;;;;;;;;;;;;;;;;5084608;28;1745;-66
2022/07/09 09:10:45;;;;;;;;;;;;;;;;;;5080648;28;1961;-66
2022/07/09 09:13:13;;;;;;;;;;;;;;;;;;5076686;28;1481;-69
2022/07/09 09:15:38;;;;;;;;;;;;;;;;;;5065202;28;1502;-67
2022/07/09 09:18:03;;;;;;;;;;;;;;;;;;5064678;28;1476;-68
2022/07/09 09:20:28;;;;;;;;;;;;;;;;;;5068280;28;1491;-66
2022/07/09 09:22:59;;;;;;;;;;;;;;;;;;5069006;28;1354;-67
2022/07/09 09:25:25;;;;;;;;;;;;;;;;;;5077900;28;1412;-67
2022/07/09 09:27:57;;;;;;;;;;;;;;;;;;5076601;28;1434;-67
2022/07/09 09:30:23;;;;;;;;;;;;;;;;;;5074903;28;1897;-66
2022/07/09 09:32:56;;;;;;;;;;;;;;;;;;5089437;28;1250;-67
2022/07/09 09:35:21;;;;;;;;;;;;;;;;;;5085631;28;1599;-66
2022/07/09 09:37:46;;;;;;;;;;;;;;;;;;5079241;28;1519;-66
2022/07/09 09:40:12;;;;;;;;;;;;;;;;;;5072266;28;1549;-66
2022/07/09 09:42:40;;;;;;;;;;;;;;;;;;5085535;28;1249;-66
2022/07/09 09:45:05;;;;;;;;;;;;;;;;;;5089634;28;1261;-66
2022/07/09 09:47:32;;;;;;;;;;;;;;;;;;5087164;28;1419;-66
2022/07/09 09:49:59;;;;;;;;;;;;;;;;;;5088267;28;1897;-67
2022/07/09 09:52:24;;;;;;;;;;;;;;;;;;5083544;28;1665;-66
2022/07/09 09:54:50;;;;;;;;;;;;;;;;;;5078045;28;2057;-65
2022/07/09 09:57:19;;;;;;;;;;;;;;;;;;5081766;28;1361;-66
2022/07/09 09:59:45;;;;;;;;;;;;;;;;;;5080795;28;1473;-65
2022/07/09 10:02:11;;;;;;;;;;;;;;;;;;5074772;28;1278;-66
2022/07/09 10:04:37;;;;;;;;;;;;;;;;;;5081341;28;905;-65
2022/07/09 10:07:03;;;;;;;;;;;;;;;;;;5063291;28;1463;-65
2022/07/09 10:09:28;;;;;;;;;;;;;;;;;;5065476;28;1314;-65
2022/07/09 10:11:53;;;;;;;;;;;;;;;;;;5080866;28;1961;-65
2022/07/09 10:14:24;;;;;;;;;;;;;;;;;;5081605;28;870;-65
2022/07/09 10:16:51;;;;;;;;;;;;;;;;;;5075994;28;1343;-66
2022/07/09 10:19:29;;;;;;;;;;;;;;;;;;5074080;28;1502;-66
2022/07/09 10:21:55;;;;;;;;;;;;;;;;;;5061022;28;799;-66
2022/07/09 10:24:30;;;;;;;;;;;;;;;;;;5061815;28;1833;-66
2022/07/09 10:27:03;;;;;;;;;;;;;;;;;;5077883;28;1275;-67
2022/07/09 10:29:28;;;;;;;;;;;;;;;;;;5079437;28;1516;-66
2022/07/09 10:31:54;;;;;;;;;;;;;;;;;;5078416;28;1893;-66
2022/07/09 10:34:34;;;;;;;;;;;;;;;;;;5076765;28;1411;-67
2022/07/09 10:37:00;;;;;;;;;;;;;;;;;;5080973;28;1200;-67
2022/07/09 10:39:26;;;;;;;;;;;;;;;;;;5067772;28;1572;-67
2022/07/09 10:42:16;;;;;;;;;;;;;;;;;;5069166;28;1495;-66
2022/07/09 10:44:42;;;;;;;;;;;;;;;;;;5073165;28;1328;-67
2022/07/09 10:47:07;;;;;;;;;;;;;;;;;;5074266;28;1458;-66
2022/07/09 10:49:36;;;;;;;;;;;;;;;;;;5060896;28;1521;-67
2022/07/09 10:52:01;;;;;;;;;;;;;;;;;;5060635;28;1882;-66
2022/07/09 10:54:27;;;;;;;;;;;;;;;;;;5060919;28;1471;-66
2022/07/09 10:56:52;;;;;;;;;;;;;;;;;;5060361;28;1263;-65
2022/07/09 10:59:18;;;;;;;;;;;;;;;;;;5063125;28;1758;-65
2022/07/09 11:01:43;;;;;;;;;;;;;;;;;;5074788;28;1395;-66
2022/07/09 11:04:09;;;;;;;;;;;;;;;;;;5079652;28;1654;-66
2022/07/09 11:06:43;;;;;;;;;;;;;;;;;;5078493;28;1521;-66
2022/07/09 11:09:12;;;;;;;;;;;;;;;;;;5079345;28;965;-66
2022/07/09 11:11:38;;;;;;;;;;;;;;;;;;5075561;28;1961;-67
2022/07/09 11:14:03;;;;;;;;;;;;;;;;;;5067108;28;1505;-66
2022/07/09 11:16:29;;;;;;;;;;;;;;;;;;5075487;28;1580;-66
2022/07/09 11:18:55;;;;;;;;;;;;;;;;;;5078017;28;1409;-65
2022/07/09 11:21:24;;;;;;;;;;;;;;;;;;5072726;28;1529;-65
2022/07/09 11:23:49;;;;;;;;;;;;;;;;;;5080612;28;1167;-66
2022/07/09 11:26:14;;;;;;;;;;;;;;;;;;5080261;28;1274;-66
2022/07/09 11:28:40;;;;;;;;;;;;;;;;;;5079843;28;1470;-65
2022/07/09 11:31:05;;;;;;;;;;;;;;;;;;5064609;28;1905;-66
2022/07/09 11:36:15;;;;;;;;;;;;;;;;;;5060997;28;1156;-66
2022/07/09 11:38:47;;;;;;;;;;;;;;;;;;5062646;28;1585;-66
2022/07/09 11:41:12;;;;;;;;;;;;;;;;;;5067900;28;1491;-66
2022/07/09 11:43:37;;;;;;;;;;;;;;;;;;5081056;28;1261;-66
2022/07/09 11:46:03;;;;;;;;;;;;;;;;;;5069037;28;1916;-66
2022/07/09 11:48:28;;;;;;;;;;;;;;;;;;5081763;28;1470;-66
2022/07/09 11:50:53;;;;;;;;;;;;;;;;;;5071956;28;1898;-66
2022/07/09 11:53:19;;;;;;;;;;;;;;;;;;5063634;28;918;-66
2022/07/09 11:55:44;;;;;;;;;;;;;;;;;;5063374;28;922;-66
2022/07/09 11:58:09;;;;;;;;;;;;;;;;;;5074638;28;1525;-66
2022/07/09 12:00:39;;;;;;;;;;;;;;;;;;5071866;28;1812;-65
2022/07/09 12:03:04;;;;;;;;;;;;;;;;;;5069346;28;1318;-66
2022/07/09 12:05:36;;;;;;;;;;;;;;;;;;5063415;28;818;-66
2022/07/09 12:08:05;;;;;;;;;;;;;;;;;;5078960;28;1529;-66
2022/07/09 12:10:39;;;;;;;;;;;;;;;;;;5079386;28;1902;-67
2022/07/09 12:13:05;;;;;;;;;;;;;;;;;;5070278;28;1553;-66
2022/07/09 12:15:30;;;;;;;;;;;;;;;;;;5083464;28;1174;-67
2022/07/09 12:18:01;;;;;;;;;;;;;;;;;;5074509;28;1478;-67
2022/07/09 12:20:31;;;;;;;;;;;;;;;;;;5063029;28;1498;-68
2022/07/09 12:22:56;;;;;;;;;;;;;;;;;;5079538;28;1458;-66
2022/07/09 12:25:22;;;;;;;;;;;;;;;;;;5082059;28;822;-67
2022/07/09 12:27:47;;;;;;;;;;;;;;;;;;5081729;28;1409;-66
2022/07/09 12:30:13;;;;;;;;;;;;;;;;;;5072006;28;1890;-67
2022/07/09 12:32:39;;;;;;;;;;;;;;;;;;5073786;28;1491;-66
2022/07/09 12:35:04;;;;;;;;;;;;;;;;;;5072863;28;1312;-66
2022/07/09 12:37:30;;;;;;;;;;;;;;;;;;5079995;28;1378;-66
2022/07/09 12:39:55;;;;;;;;;;;;;;;;;;5075372;28;1211;-68
2022/07/09 12:42:20;;;;;;;;;;;;;;;;;;5080576;28;1450;-66
2022/07/09 12:44:46;;;;;;;;;;;;;;;;;;5077660;28;1533;-66
2022/07/09 12:47:11;;;;;;;;;;;;;;;;;;5070194;28;1346;-66
2022/07/09 12:49:36;;;;;;;;;;;;;;;;;;5081332;28;1203;-66
2022/07/09 12:52:02;;;;;;;;;;;;;;;;;;5074645;28;1953;-66
2022/07/09 12:54:27;;;;;;;;;;;;;;;;;;5076903;28;1043;-67
2022/07/09 12:56:52;;;;;;;;;;;;;;;;;;5080450;28;1465;-67
2022/07/09 12:59:18;;;;;;;;;;;;;;;;;;5062701;28;866;-68
2022/07/09 13:01:43;;;;;;;;;;;;;;;;;;5065083;28;1580;-66
2022/07/09 13:04:08;;;;;;;;;;;;;;;;;;5082382;28;1160;-66
2022/07/09 13:06:34;;;;;;;;;;;;;;;;;;5080355;28;1438;-66
2022/07/09 13:09:02;;;;;;;;;;;;;;;;;;5062469;28;882;-66
2022/07/09 13:11:28;;;;;;;;;;;;;;;;;;5062387;28;1893;-66
2022/07/09 13:13:53;;;;;;;;;;;;;;;;;;5061625;28;1427;-66
2022/07/09 13:16:19;;;;;;;;;;;;;;;;;;5065843;28;1458;-66
2022/07/09 13:18:44;;;;;;;;;;;;;;;;;;5080351;28;1462;-65
2022/07/09 13:21:09;;;;;;;;;;;;;;;;;;5082452;28;861;-66
2022/07/09 13:23:34;;;;;;;;;;;;;;;;;;5073509;28;1614;-66
2022/07/09 13:25:59;;;;;;;;;;;;;;;;;;5080839;28;1341;-66
2022/07/09 13:28:25;;;;;;;;;;;;;;;;;;5081990;28;1187;-66
2022/07/09 13:30:50;;;;;;;;;;;;;;;;;;5079962;28;1894;-66
2022/07/09 13:33:16;;;;;;;;;;;;;;;;;;5066082;28;1415;-66
2022/07/09 13:35:41;;;;;;;;;;;;;;;;;;5075742;28;1486;-66
2022/07/09 13:38:07;;;;;;;;;;;;;;;;;;5081206;28;1350;-66
2022/07/09 13:40:32;;;;;;;;;;;;;;;;;;5075995;28;1505;-66
2022/07/09 13:42:57;;;;;;;;;;;;;;;;;;5065710;28;1513;-66
2022/07/09 13:45:23;;;;;;;;;;;;;;;;;;5080278;28;1430;-66
2022/07/09 13:47:48;;;;;;;;;;;;;;;;;;5068546;28;1451;-67
2022/07/09 13:50:13;;;;;;;;;;;;;;;;;;5069284;28;1906;-65
2022/07/09 13:52:38;;;;;;;;;;;;;;;;;;5077548;28;1815;-66
2022/07/09 13:55:04;;;;;;;;;;;;;;;;;;5074688;28;1437;-65
2022/07/09 13:57:29;;;;;;;;;;;;;;;;;;5072671;28;1826;-66
2022/07/09 13:59:54;;;;;;;;;;;;;;;;;;5070286;28;1178;-66
2022/07/09 14:02:19;;;;;;;;;;;;;;;;;;5068422;28;1581;-66
2022/07/09 14:04:46;;;;;;;;;;;;;;;;;;5080275;28;1470;-66
2022/07/09 14:07:11;;;;;;;;;;;;;;;;;;5078776;28;1477;-66
2022/07/09 14:09:37;;;;;;;;;;;;;;;;;;5067360;28;1413;-66
2022/07/09 14:12:02;;;;;;;;;;;;;;;;;;5060376;28;1878;-66
2022/07/09 14:14:27;;;;;;;;;;;;;;;;;;5061645;28;1387;-66
2022/07/09 14:16:53;;;;;;;;;;;;;;;;;;5064504;28;1544;-66
2022/07/09 14:19:18;;;;;;;;;;;;;;;;;;5081328;28;1221;-64
2022/07/09 14:21:43;;;;;;;;;;;;;;;;;;5081330;28;806;-66
2022/07/09 14:24:08;;;;;;;;;;;;;;;;;;5067560;28;1517;-65
2022/07/09 14:26:34;;;;;;;;;;;;;;;;;;5090586;28;1304;-66
2022/07/09 14:28:59;;;;;;;;;;;;;;;;;;5092899;28;1124;-66
2022/07/09 14:31:24;;;;;;;;;;;;;;;;;;5081210;28;1886;-66
2022/07/09 14:33:49;;;;;;;;;;;;;;;;;;5080954;28;826;-66
2022/07/09 14:36:15;;;;;;;;;;;;;;;;;;5080147;28;1485;-65
2022/07/09 14:38:40;;;;;;;;;;;;;;;;;;5081116;28;1142;-66
2022/07/09 14:41:05;;;;;;;;;;;;;;;;;;5077904;28;1356;-66
2022/07/09 14:43:30;;;;;;;;;;;;;;;;;;5074225;28;1599;-66
2022/07/09 14:45:56;;;;;;;;;;;;;;;;;;5060814;28;984;-66
2022/07/09 14:48:21;;;;;;;;;;;;;;;;;;5060668;28;1518;-65
2022/07/09 14:50:46;;;;;;;;;;;;;;;;;;5060573;28;1902;-66
2022/07/09 14:53:11;;;;;;;;;;;;;;;;;;5060735;28;1450;-66
2022/07/09 14:55:36;;;;;;;;;;;;;;;;;;5065402;28;1454;-67
2022/07/09 14:58:02;;;;;;;;;;;;;;;;;;5063838;28;1243;-67
2022/07/09 15:00:27;;;;;;;;;;;;;;;;;;5077304;28;1526;-67
2022/07/09 15:02:53;;;;;;;;;;;;;;;;;;5066382;28;1501;-67
2022/07/09 15:05:18;;;;;;;;;;;;;;;;;;5060644;28;993;-65
2022/07/09 15:07:43;;;;;;;;;;;;;;;;;;5060728;28;1291;-65
2022/07/09 15:10:08;;;;;;;;;;;;;;;;;;5071352;28;1893;-66
2022/07/09 15:12:34;;;;;;;;;;;;;;;;;;5079627;28;1602;-66
2022/07/09 15:14:59;;;;;;;;;;;;;;;;;;5064394;28;1466;-66
2022/07/09 15:17:24;;;;;;;;;;;;;;;;;;5069750;28;1485;-66
2022/07/09 15:19:49;;;;;;;;;;;;;;;;;;5079711;28;1497;-66
2022/07/09 15:22:15;;;;;;;;;;;;;;;;;;5084135;28;849;-66
2022/07/09 15:24:40;;;;;;;;;;;;;;;;;;5077256;28;1473;-66
2022/07/09 15:27:05;;;;;;;;;;;;;;;;;;5082239;28;1361;-65
2022/07/09 15:29:31;;;;;;;;;;;;;;;;;;5082139;28;1668;-65
2022/07/09 15:31:56;;;;;;;;;;;;;;;;;;5070400;28;1905;-65
2022/07/09 15:34:21;;;;;;;;;;;;;;;;;;5083383;28;1687;-66
2022/07/09 15:36:46;;;;;;;;;;;;;;;;;;5079011;28;1509;-66
2022/07/09 15:39:12;;;;;;;;;;;;;;;;;;5076450;28;1513;-66
2022/07/09 15:41:37;;;;;;;;;;;;;;;;;;5078271;28;1632;-66
2022/07/09 15:44:04;;;;;;;;;;;;;;;;;;5075523;28;1177;-64
2022/07/09 15:46:30;;;;;;;;;;;;;;;;;;5078097;28;1515;-64
2022/07/09 15:48:55;;;;;;;;;;;;;;;;;;5071474;28;1907;-64
2022/07/09 15:51:20;;;;;;;;;;;;;;;;;;5064632;28;1901;-64
2022/07/09 15:53:45;;;;;;;;;;;;;;;;;;5078057;28;1419;-65
2022/07/09 15:56:11;;;;;;;;;;;;;;;;;;5076043;28;1550;-66
2022/07/09 15:58:36;;;;;;;;;;;;;;;;;;5080934;28;1392;-66
2022/07/09 16:01:01;;;;;;;;;;;;;;;;;;5076595;28;1356;-66
2022/07/09 16:03:26;;;;;;;;;;;;;;;;;;5078887;28;1475;-65
2022/07/09 16:05:52;;;;;;;;;;;;;;;;;;5083624;28;1131;-64
2022/07/09 16:08:17;;;;;;;;;;;;;;;;;;5075889;28;1824;-65
2022/07/09 16:10:42;;;;;;;;;;;;;;;;;;5070729;28;1893;-66
2022/07/09 16:13:07;;;;;;;;;;;;;;;;;;5074246;28;1291;-65
2022/07/09 16:15:33;;;;;;;;;;;;;;;;;;5068548;28;1481;-66
2022/07/09 16:17:58;;;;;;;;;;;;;;;;;;5079578;28;1589;-65
2022/07/09 16:20:24;;;;;;;;;;;;;;;;;;5083026;28;1151;-66
2022/07/09 16:22:50;;;;;;;;;;;;;;;;;;5081906;28;1516;-66
2022/07/09 16:25:16;;;;;;;;;;;;;;;;;;5068599;28;1714;-66
2022/07/09 16:27:41;;;;;;;;;;;;;;;;;;5078340;28;1522;-66
2022/07/09 16:30:10;;;;;;;;;;;;;;;;;;5077708;28;1956;-67
2022/07/09 16:32:36;;;;;;;;;;;;;;;;;;5072493;28;1480;-67
2022/07/09 16:35:01;;;;;;;;;;;;;;;;;;5072443;28;1496;-66
2022/07/09 16:37:27;;;;;;;;;;;;;;;;;;5069070;28;1752;-66
2022/07/09 16:39:52;;;;;;;;;;;;;;;;;;5074550;28;1526;-65
2022/07/09 16:42:18;;;;;;;;;;;;;;;;;;5071797;28;1439;-66
2022/07/09 16:44:43;;;;;;;;;;;;;;;;;;5072545;28;1400;-65
2022/07/09 16:47:08;;;;;;;;;;;;;;;;;;5076367;28;1507;-65
2022/07/09 16:49:33;;;;;;;;;;;;;;;;;;5075413;28;1448;-65
2022/07/09 16:51:59;;;;;;;;;;;;;;;;;;5065247;28;1949;-65
2022/07/09 16:54:24;;;;;;;;;;;;;;;;;;5069781;28;1547;-65